OMFJ/FJR METAR and TAF weather

Enter ICAO airport designator
Station Type Date Time Source
OMFJ METAR 2020/12/05 06:00 UTC NOAA

OMFJ 050600Z 18002KT CAVOK 30/13 Q1014 A2995


Station Type Date Time Source
OMFJ Decoded METAR 2020/12/05 06:00 UTC NOAA

Fujairah, United Arab Emirates (OMFJ) 25-06N 056-20E 28M
Dec 05, 2020 - 01:00 AM EST / 2020.12.05 0600 UTC
Wind: from the S (180 degrees) at 2 MPH (2 KT):0
Visibility: greater than 7 mile(s):0
Temperature: 86 F (30 C)
Dew Point: 55 F (13 C)
Relative Humidity: 35%
Pressure (altimeter): 29.95 in. Hg (1014 hPa)
ob: OMFJ 050600Z 18002KT CAVOK 30/13 Q1014 A2995
cycle: 6

Station Type Date Time Source
OMFJ TAF 2020/12/05 06:06 UTC NOAA

TAF OMFJ 050500Z 0506/0612 09007KT 8000 NSC
BECMG 0514/0516 VRB02KT
BECMG 0520/0522 29006KT
BECMG 0607/0609 10008KT FEW025

Example: see airport list